createdAt,value
2023-02-11T00:01:26.602Z,-1.73
2023-02-11T00:03:55.147Z,-1.87
2023-02-11T00:06:23.880Z,-1.70
2023-02-11T00:08:51.854Z,-1.68
2023-02-11T00:11:21.089Z,-1.57
2023-02-11T00:13:49.017Z,-1.61
2023-02-11T00:16:18.397Z,-1.71
2023-02-11T00:18:46.675Z,-1.77
2023-02-11T00:21:16.037Z,-1.86
2023-02-11T00:23:44.819Z,-2.04
2023-02-11T00:26:23.721Z,-1.83
2023-02-11T00:28:52.343Z,-1.52
2023-02-11T00:31:22.042Z,-1.37
2023-02-11T00:33:50.159Z,-1.23
2023-02-11T00:36:19.625Z,-1.08
2023-02-11T00:38:48.921Z,-0.90
2023-02-11T00:41:17.177Z,-0.82
2023-02-11T00:43:45.496Z,-0.89
2023-02-11T00:46:14.201Z,-0.80
2023-02-11T00:48:42.733Z,-0.67
2023-02-11T00:51:10.884Z,-0.54
2023-02-11T00:53:38.924Z,-0.46
2023-02-11T00:56:07.049Z,-0.48
2023-02-11T00:58:35.415Z,-0.51
2023-02-11T01:01:04.178Z,-0.46
2023-02-11T01:03:32.400Z,-0.39
2023-02-11T01:06:00.998Z,-0.34
2023-02-11T01:08:29.277Z,-0.55
2023-02-11T01:11:02.256Z,-0.70
2023-02-11T01:13:31.860Z,-0.95
2023-02-11T01:16:00.326Z,-1.02
2023-02-11T01:18:28.727Z,-1.21
2023-02-11T01:20:56.885Z,-1.19
2023-02-11T01:23:24.961Z,-1.30
2023-02-11T01:25:53.235Z,-1.20
2023-02-11T01:28:23.497Z,-1.13
2023-02-11T01:30:52.035Z,-1.09
2023-02-11T01:33:20.920Z,-1.08
2023-02-11T01:35:49.757Z,-0.99
2023-02-11T01:38:19.943Z,-1.16
2023-02-11T01:40:52.867Z,-0.92
2023-02-11T01:43:21.550Z,-0.60
2023-02-11T01:46:16.030Z,-0.68
2023-02-11T01:48:45.658Z,-0.89
2023-02-11T01:51:16.812Z,-0.84
2023-02-11T01:54:05.163Z,-0.86
2023-02-11T01:56:53.935Z,-1.20
2023-02-11T01:59:29.164Z,-1.36
2023-02-11T02:01:59.181Z,-1.55
2023-02-11T02:04:31.600Z,-1.54
2023-02-11T02:07:02.158Z,-1.43
2023-02-11T02:09:33.376Z,-1.44
2023-02-11T02:12:01.401Z,-1.42
2023-02-11T02:14:31.826Z,-1.31
2023-02-11T02:16:59.971Z,-1.03
2023-02-11T02:19:49.957Z,-1.14
2023-02-11T02:22:36.483Z,-0.90
2023-02-11T02:25:10.718Z,-0.57
2023-02-11T02:27:57.369Z,-0.63
2023-02-11T02:30:40.851Z,-0.92
2023-02-11T02:33:28.939Z,-1.08
2023-02-11T02:36:15.287Z,-1.25
2023-02-11T02:38:48.812Z,-1.24
2023-02-11T02:41:19.527Z,-1.20
2023-02-11T02:43:51.518Z,-1.41
2023-02-11T02:46:23.347Z,-1.71
2023-02-11T02:48:55.908Z,-1.75
2023-02-11T02:51:24.163Z,-1.97
2023-02-11T02:53:55.319Z,-1.93
2023-02-11T02:56:33.116Z,-2.18
2023-02-11T02:59:10.505Z,-2.15
2023-02-11T03:01:45.117Z,-1.82
2023-02-11T03:04:22.941Z,-1.79
2023-02-11T03:06:50.989Z,-1.65
2023-02-11T03:09:19.221Z,-1.47
2023-02-11T03:11:47.239Z,-1.41
2023-02-11T03:14:17.356Z,-2.12
2023-02-11T03:16:46.795Z,-2.48
2023-02-11T03:19:18.743Z,-2.20
2023-02-11T03:21:47.190Z,-2.94
2023-02-11T03:24:28.810Z,-3.03
2023-02-11T03:26:59.159Z,-3.04
2023-02-11T03:29:36.400Z,-2.88
2023-02-11T03:32:04.439Z,-2.81
2023-02-11T03:34:32.504Z,-2.91
2023-02-11T03:37:08.129Z,-2.90
2023-02-11T03:39:38.708Z,-2.98
2023-02-11T03:42:09.141Z,-2.81
2023-02-11T03:44:40.474Z,-2.70
2023-02-11T03:47:12.674Z,-2.99
2023-02-11T03:49:41.941Z,-2.77
2023-02-11T03:52:11.485Z,-2.67
2023-02-11T03:54:42.716Z,-2.63
2023-02-11T03:57:10.669Z,-2.55
2023-02-11T03:59:52.110Z,-2.53
2023-02-11T04:02:20.757Z,-2.65
2023-02-11T04:04:48.852Z,-2.85
2023-02-11T04:07:16.930Z,-3.19
2023-02-11T04:09:44.870Z,-3.43
2023-02-11T04:12:12.904Z,-3.35
2023-02-11T04:14:40.997Z,-3.20
2023-02-11T04:17:09.205Z,-3.08
2023-02-11T04:19:37.342Z,-3.23
2023-02-11T04:22:05.587Z,-3.46
2023-02-11T04:24:34.164Z,-3.69
2023-02-11T04:27:02.143Z,-3.60
2023-02-11T04:29:30.250Z,-3.33
2023-02-11T04:31:58.319Z,-3.37
2023-02-11T04:34:26.725Z,-3.41
2023-02-11T04:36:54.961Z,-3.41
2023-02-11T04:39:22.993Z,-3.28
2023-02-11T04:41:50.925Z,-3.07
2023-02-11T04:44:19.140Z,-2.85
2023-02-11T04:46:47.219Z,-2.96
2023-02-11T04:49:16.931Z,-3.17
2023-02-11T04:51:47.606Z,-3.46
2023-02-11T04:54:17.791Z,-3.57
2023-02-11T04:56:46.184Z,-3.69
2023-02-11T04:59:14.339Z,-3.62
2023-02-11T05:01:42.739Z,-3.54
2023-02-11T05:04:10.781Z,-3.35
2023-02-11T05:06:39.968Z,-3.24
2023-02-11T05:09:08.752Z,-3.02
2023-02-11T05:11:36.880Z,-3.08
2023-02-11T05:14:05.937Z,-2.94
2023-02-11T05:16:34.340Z,-2.88
2023-02-11T05:19:02.459Z,-2.94
2023-02-11T05:21:33.237Z,-2.97
2023-02-11T05:24:01.375Z,-2.98
2023-02-11T05:26:29.384Z,-3.29
2023-02-11T05:28:57.827Z,-3.70
2023-02-11T05:31:25.999Z,-3.39
2023-02-11T05:33:54.365Z,-3.19
2023-02-11T05:36:22.444Z,-3.25
2023-02-11T05:38:51.764Z,-2.87
2023-02-11T05:41:19.799Z,-3.10
2023-02-11T05:43:50.054Z,-3.31
2023-02-11T05:46:18.558Z,-3.96
2023-02-11T05:48:46.838Z,-4.32
2023-02-11T05:51:14.945Z,-3.74
2023-02-11T05:53:42.937Z,-3.28
2023-02-11T05:56:11.632Z,-3.40
2023-02-11T05:58:39.660Z,-3.50
2023-02-11T06:01:07.788Z,-3.42
2023-02-11T06:03:35.930Z,-2.81
2023-02-11T06:06:04.143Z,-2.39
2023-02-11T06:08:32.452Z,-2.37
2023-02-11T06:11:00.632Z,-2.36
2023-02-11T06:13:28.800Z,-2.32
2023-02-11T06:15:57.820Z,-2.26
2023-02-11T06:18:29.777Z,-1.46
2023-02-11T06:20:57.940Z,-0.53
2023-02-11T06:23:28.535Z,0.15
2023-02-11T06:26:01.657Z,0.76
2023-02-11T06:28:31.556Z,1.08
2023-02-11T06:31:04.619Z,1.76
2023-02-11T06:33:33.344Z,2.08
2023-02-11T06:36:01.550Z,1.83
2023-02-11T06:38:29.784Z,2.50
2023-02-11T06:40:58.059Z,3.07
2023-02-11T06:43:26.192Z,4.07
2023-02-11T06:45:54.585Z,4.52
2023-02-11T06:48:23.488Z,4.79
2023-02-11T06:50:51.711Z,5.21
2023-02-11T06:53:19.842Z,5.55
2023-02-11T06:55:48.180Z,5.77
2023-02-11T06:58:16.389Z,5.73
2023-02-11T07:00:44.563Z,5.97
2023-02-11T07:03:12.944Z,5.98
2023-02-11T07:05:43.208Z,6.06
2023-02-11T07:08:11.334Z,6.29
2023-02-11T07:10:39.406Z,6.26
2023-02-11T07:13:07.694Z,6.59
2023-02-11T07:15:37.441Z,6.51
2023-02-11T07:18:05.560Z,6.21
2023-02-11T07:20:34.518Z,6.42
2023-02-11T07:23:02.519Z,6.68
2023-02-11T07:25:30.680Z,7.01
2023-02-11T07:27:58.785Z,7.14
2023-02-11T07:30:27.147Z,7.31
2023-02-11T07:32:56.252Z,7.52
2023-02-11T07:35:24.303Z,7.74
2023-02-11T07:37:52.442Z,7.75
2023-02-11T07:40:20.413Z,8.13
2023-02-11T07:42:48.716Z,8.20
2023-02-11T07:45:17.633Z,7.93
2023-02-11T07:47:45.896Z,7.19
2023-02-11T07:50:14.330Z,7.02
2023-02-11T07:52:42.326Z,6.88
2023-02-11T07:55:11.595Z,6.80
2023-02-11T07:57:39.825Z,6.72
2023-02-11T08:00:08.043Z,6.33
2023-02-11T08:02:39.257Z,5.90
2023-02-11T08:05:07.312Z,5.21
2023-02-11T08:07:35.312Z,4.49
2023-02-11T08:10:04.224Z,4.17
2023-02-11T08:12:32.277Z,3.19
2023-02-11T08:15:00.285Z,2.88
2023-02-11T08:17:28.351Z,2.54
2023-02-11T08:19:56.421Z,2.34
2023-02-11T08:22:24.454Z,2.03
2023-02-11T08:24:52.607Z,1.46
2023-02-11T08:27:20.723Z,1.03
2023-02-11T08:29:48.670Z,1.21
2023-02-11T08:32:16.674Z,1.63
2023-02-11T08:34:45.045Z,1.92
2023-02-11T08:37:13.092Z,2.24
2023-02-11T08:39:41.389Z,2.47
2023-02-11T08:42:09.559Z,2.54
2023-02-11T08:44:37.835Z,2.51
2023-02-11T08:47:05.760Z,2.56
2023-02-11T08:49:34.228Z,3.06
2023-02-11T08:52:04.422Z,3.26
2023-02-11T08:54:32.474Z,3.42
2023-02-11T08:57:02.168Z,3.66
2023-02-11T08:59:30.167Z,3.89
2023-02-11T09:01:58.394Z,4.00
2023-02-11T09:04:26.449Z,3.98
2023-02-11T09:06:54.880Z,3.93
2023-02-11T09:09:23.148Z,3.86
2023-02-11T09:11:51.076Z,3.64
2023-02-11T09:14:20.667Z,3.69
2023-02-11T09:16:49.308Z,3.90
2023-02-11T09:19:17.645Z,4.06
2023-02-11T09:21:45.955Z,4.31
2023-02-11T09:24:14.128Z,4.43
2023-02-11T09:26:43.353Z,4.54
2023-02-11T09:29:11.607Z,4.48
2023-02-11T09:31:39.722Z,4.69
2023-02-11T09:34:08.272Z,4.80
2023-02-11T09:36:38.491Z,5.14
2023-02-11T09:39:08.414Z,5.41
2023-02-11T09:41:42.838Z,5.68
2023-02-11T09:44:18.041Z,5.71
2023-02-11T09:46:48.070Z,5.85
2023-02-11T09:49:18.319Z,6.02
2023-02-11T09:51:52.383Z,6.00
2023-02-11T09:54:35.825Z,5.92
2023-02-11T09:57:04.113Z,5.99
2023-02-11T09:59:32.244Z,6.23
2023-02-11T10:02:09.856Z,6.28
2023-02-11T10:04:40.895Z,6.21
2023-02-11T10:07:12.265Z,6.06
2023-02-11T10:09:49.634Z,5.88
2023-02-11T10:12:30.538Z,5.85
2023-02-11T10:14:58.628Z,5.92
2023-02-11T10:17:26.701Z,5.72
2023-02-11T10:20:00.775Z,5.58
2023-02-11T10:22:32.936Z,5.61
2023-02-11T10:25:06.208Z,5.54
2023-02-11T10:27:36.046Z,5.46
2023-02-11T10:30:16.182Z,5.64
2023-02-11T10:32:52.189Z,5.65
2023-02-11T10:35:22.132Z,5.77
2023-02-11T10:37:50.443Z,5.94
2023-02-11T10:40:20.082Z,6.04
2023-02-11T10:42:49.853Z,6.00
2023-02-11T10:45:22.400Z,5.51
2023-02-11T10:47:50.500Z,5.58
2023-02-11T10:50:21.287Z,5.92
2023-02-11T10:52:49.630Z,6.49
2023-02-11T10:55:27.997Z,6.87
2023-02-11T10:57:58.409Z,6.93
2023-02-11T11:00:38.041Z,6.93
2023-02-11T11:03:35.445Z,6.28
2023-02-11T11:06:05.489Z,6.33
2023-02-11T11:08:53.840Z,6.47
2023-02-11T11:11:23.383Z,6.74
2023-02-11T11:13:54.455Z,7.03
2023-02-11T11:16:22.894Z,7.30
2023-02-11T11:18:53.341Z,7.61
2023-02-11T11:21:25.932Z,7.71
2023-02-11T11:23:58.927Z,7.36
2023-02-11T11:26:28.981Z,7.36
2023-02-11T11:29:07.696Z,7.59
2023-02-11T11:31:57.128Z,7.74
2023-02-11T11:34:42.025Z,7.80
2023-02-11T11:37:15.287Z,7.72
2023-02-11T11:39:48.735Z,7.73
2023-02-11T11:42:29.079Z,7.70
2023-02-11T11:45:01.928Z,7.72
2023-02-11T11:47:35.249Z,7.83
2023-02-11T11:50:06.756Z,7.90
2023-02-11T11:52:44.073Z,7.81
2023-02-11T11:55:20.832Z,7.82
2023-02-11T11:57:49.307Z,7.92
2023-02-11T12:00:19.625Z,7.95
2023-02-11T12:03:04.970Z,8.04
2023-02-11T12:05:51.703Z,8.23
2023-02-11T12:08:19.706Z,8.16
2023-02-11T12:10:53.750Z,8.24
2023-02-11T12:13:43.162Z,8.32
2023-02-11T12:16:20.524Z,8.32
2023-02-11T12:19:07.252Z,8.17
2023-02-11T12:21:41.703Z,7.96
2023-02-11T12:24:33.092Z,7.79
2023-02-11T12:27:27.270Z,7.72
2023-02-11T12:30:14.490Z,7.64
2023-02-11T12:32:52.266Z,7.38
2023-02-11T12:35:43.395Z,7.46
2023-02-11T12:38:26.477Z,7.21
2023-02-11T12:40:54.394Z,6.90
2023-02-11T12:43:22.534Z,6.99
2023-02-11T12:46:05.957Z,7.04
2023-02-11T12:48:37.333Z,7.14
2023-02-11T12:51:05.282Z,7.21
2023-02-11T12:53:36.348Z,7.48
2023-02-11T12:56:15.169Z,7.73
2023-02-11T12:58:45.813Z,8.01
2023-02-11T13:01:20.903Z,8.22
2023-02-11T13:03:57.774Z,8.46
2023-02-11T13:06:29.546Z,8.34
2023-02-11T13:09:02.212Z,8.28
2023-02-11T13:11:38.031Z,8.22
2023-02-11T13:14:09.359Z,8.24
2023-02-11T13:16:42.188Z,8.44
2023-02-11T13:19:12.955Z,8.47
2023-02-11T13:22:10.528Z,8.43
2023-02-11T13:24:51.614Z,8.26
2023-02-11T13:27:19.512Z,8.09
2023-02-11T13:30:06.533Z,8.07
2023-02-11T13:32:54.219Z,7.85
2023-02-11T13:35:30.430Z,7.80
2023-02-11T13:38:00.431Z,7.56
2023-02-11T13:40:30.503Z,7.42
2023-02-11T13:43:00.015Z,7.30
2023-02-11T13:45:38.739Z,7.24
2023-02-11T13:48:14.301Z,7.21
2023-02-11T13:50:48.442Z,7.07
2023-02-11T13:53:17.256Z,7.04
2023-02-11T13:55:46.691Z,6.88
2023-02-11T13:58:14.947Z,6.82
2023-02-11T14:00:51.495Z,6.80
2023-02-11T14:03:38.181Z,6.78
2023-02-11T14:06:28.121Z,6.88
2023-02-11T14:09:14.603Z,6.71
2023-02-11T14:11:55.420Z,6.64
2023-02-11T14:14:27.514Z,6.68
2023-02-11T14:16:58.859Z,6.59
2023-02-11T14:19:38.634Z,6.28
2023-02-11T14:22:13.703Z,6.03
2023-02-11T14:24:46.966Z,5.93
2023-02-11T14:27:21.508Z,5.85
2023-02-11T14:29:51.245Z,5.71
2023-02-11T14:32:33.007Z,5.68
2023-02-11T14:35:16.090Z,5.65
2023-02-11T14:37:50.668Z,5.58
2023-02-11T14:40:40.517Z,5.52
2023-02-11T14:43:20.108Z,5.38
2023-02-11T14:45:51.235Z,5.25
2023-02-11T14:48:20.462Z,5.09
2023-02-11T14:50:50.535Z,5.14
2023-02-11T14:53:21.173Z,5.13
2023-02-11T14:55:52.454Z,4.98
2023-02-11T14:58:21.966Z,4.81
2023-02-11T15:01:10.598Z,4.73
2023-02-11T15:03:42.677Z,4.64
2023-02-11T15:06:29.259Z,4.54
2023-02-11T15:09:06.301Z,4.42
2023-02-11T15:11:39.592Z,4.38
2023-02-11T15:14:12.301Z,4.34
2023-02-11T15:16:42.073Z,4.15
2023-02-11T15:19:20.253Z,3.89
2023-02-11T15:21:48.789Z,3.80
2023-02-11T15:24:27.783Z,3.75
2023-02-11T15:26:59.393Z,3.71
2023-02-11T15:29:38.778Z,3.57
2023-02-11T15:32:12.545Z,3.52
2023-02-11T15:34:41.039Z,3.43
2023-02-11T15:37:13.632Z,3.34
2023-02-11T15:39:42.285Z,3.21
2023-02-11T15:42:27.182Z,3.15
2023-02-11T15:45:14.192Z,3.17
2023-02-11T15:47:47.080Z,3.08
2023-02-11T15:50:20.067Z,3.07
2023-02-11T15:52:48.583Z,3.00
2023-02-11T15:55:17.878Z,2.96
2023-02-11T15:57:47.207Z,2.97
2023-02-11T16:00:19.205Z,2.96
2023-02-11T16:02:48.811Z,2.98
2023-02-11T16:05:29.381Z,3.04
2023-02-11T16:07:58.308Z,3.12
2023-02-11T16:10:30.438Z,3.17
2023-02-11T16:13:18.279Z,3.24
2023-02-11T16:15:49.017Z,3.37
2023-02-11T16:18:36.832Z,3.52
2023-02-11T16:21:07.743Z,3.52
2023-02-11T16:23:37.998Z,3.50
2023-02-11T16:26:32.680Z,3.56
2023-02-11T16:29:10.440Z,3.59
2023-02-11T16:31:40.435Z,3.63
2023-02-11T16:34:14.126Z,3.59
2023-02-11T16:36:42.672Z,3.43
2023-02-11T16:39:11.343Z,3.21
2023-02-11T16:41:39.616Z,2.92
2023-02-11T16:44:07.887Z,2.42
2023-02-11T16:46:36.670Z,2.02
2023-02-11T16:49:15.118Z,1.86
2023-02-11T16:51:43.612Z,1.74
2023-02-11T16:54:13.846Z,1.52
2023-02-11T16:56:42.429Z,1.25
2023-02-11T16:59:10.563Z,1.02
2023-02-11T17:01:40.399Z,0.85
2023-02-11T17:04:11.685Z,0.35
2023-02-11T17:06:39.896Z,-0.08
2023-02-11T17:09:09.538Z,-0.38
2023-02-11T17:11:37.628Z,-0.62
2023-02-11T17:14:05.943Z,-0.78
2023-02-11T17:16:34.161Z,-0.87
2023-02-11T17:19:02.527Z,-1.02
2023-02-11T17:21:32.140Z,-1.25
2023-02-11T17:24:00.368Z,-1.31
2023-02-11T17:26:28.444Z,-1.24
2023-02-11T17:28:56.625Z,-1.15
2023-02-11T17:31:24.810Z,-0.90
2023-02-11T17:33:53.057Z,-0.75
2023-02-11T17:36:21.145Z,-0.61
2023-02-11T17:38:49.272Z,-0.45
2023-02-11T17:41:17.584Z,-0.13
2023-02-11T17:43:45.508Z,-0.20
2023-02-11T17:46:14.483Z,-0.37
2023-02-11T17:48:42.717Z,-0.40
2023-02-11T17:51:24.531Z,-0.48
2023-02-11T17:53:53.802Z,-0.78
2023-02-11T17:56:22.090Z,-0.89
2023-02-11T17:58:50.317Z,-0.87
2023-02-11T18:01:18.404Z,-0.84
2023-02-11T18:03:46.802Z,-0.67
2023-02-11T18:06:14.973Z,-0.52
2023-02-11T18:08:43.274Z,-0.40
2023-02-11T18:11:11.843Z,-0.32
2023-02-11T18:13:39.834Z,-0.23
2023-02-11T18:16:15.909Z,0.09
2023-02-11T18:18:44.692Z,0.43
2023-02-11T18:21:13.533Z,0.64
2023-02-11T18:23:43.286Z,0.79
2023-02-11T18:26:11.993Z,1.17
2023-02-11T18:28:40.628Z,1.51
2023-02-11T18:31:09.589Z,2.03
2023-02-11T18:33:39.154Z,2.45
2023-02-11T18:36:08.071Z,2.24
2023-02-11T18:38:36.514Z,1.93
2023-02-11T18:41:04.864Z,1.76
2023-02-11T18:43:34.429Z,1.81
2023-02-11T18:46:06.658Z,1.91
2023-02-11T18:48:34.883Z,1.92
2023-02-11T18:51:02.767Z,2.21
2023-02-11T18:53:30.943Z,2.74
2023-02-11T18:55:58.881Z,3.03
2023-02-11T18:58:26.887Z,3.22
2023-02-11T19:00:54.909Z,3.38
2023-02-11T19:03:22.805Z,3.50
2023-02-11T19:05:51.113Z,3.46
2023-02-11T19:08:19.691Z,3.58
2023-02-11T19:10:49.444Z,3.71
2023-02-11T19:13:17.804Z,3.80
2023-02-11T19:15:46.344Z,3.68
2023-02-11T19:18:15.638Z,3.68
2023-02-11T19:20:44.428Z,3.70
2023-02-11T19:23:12.391Z,3.51
2023-02-11T19:25:45.682Z,3.35
2023-02-11T19:28:13.787Z,3.70
2023-02-11T19:30:42.472Z,3.84
2023-02-11T19:33:10.779Z,3.81
2023-02-11T19:35:39.002Z,3.79
2023-02-11T19:38:07.378Z,3.67
2023-02-11T19:40:35.439Z,3.51
2023-02-11T19:43:03.620Z,3.63
2023-02-11T19:45:31.579Z,3.74
2023-02-11T19:47:59.531Z,3.90
2023-02-11T19:50:27.630Z,3.98
2023-02-11T19:52:55.711Z,4.16
2023-02-11T19:55:23.976Z,4.10
2023-02-11T19:57:52.036Z,4.02
2023-02-11T20:00:20.309Z,4.16
2023-02-11T20:02:51.667Z,4.15
2023-02-11T20:05:20.036Z,4.06
2023-02-11T20:07:47.989Z,3.99
2023-02-11T20:10:16.589Z,4.11
2023-02-11T20:12:44.548Z,4.03
2023-02-11T20:15:12.805Z,4.06
2023-02-11T20:17:40.896Z,3.90
2023-02-11T20:20:09.336Z,4.03
2023-02-11T20:22:37.283Z,4.28
2023-02-11T20:25:05.611Z,4.27
2023-02-11T20:27:33.547Z,4.40
2023-02-11T20:30:01.797Z,4.42
2023-02-11T20:32:32.820Z,4.31
2023-02-11T20:35:01.075Z,4.24
2023-02-11T20:37:29.164Z,4.35
2023-02-11T20:39:58.952Z,4.43
2023-02-11T20:42:27.576Z,4.32
2023-02-11T20:44:55.702Z,3.78
2023-02-11T20:47:23.877Z,3.81
2023-02-11T20:49:53.997Z,4.11
2023-02-11T20:52:22.389Z,4.20
2023-02-11T20:54:50.372Z,3.97
2023-02-11T20:57:18.375Z,3.73
2023-02-11T20:59:46.406Z,3.66
2023-02-11T21:02:14.796Z,3.64
2023-02-11T21:04:43.353Z,3.62
2023-02-11T21:07:11.406Z,3.50
2023-02-11T21:09:40.299Z,3.65
2023-02-11T21:12:08.887Z,3.86
2023-02-11T21:14:36.905Z,4.07
2023-02-11T21:17:04.916Z,4.16
2023-02-11T21:19:33.144Z,4.36
2023-02-11T21:22:01.906Z,4.38
2023-02-11T21:24:31.030Z,4.30
2023-02-11T21:26:59.288Z,4.16
2023-02-11T21:29:27.261Z,4.00
2023-02-11T21:31:55.487Z,3.94
2023-02-11T21:34:23.602Z,4.05
2023-02-11T21:36:52.473Z,4.10
2023-02-11T21:39:20.501Z,4.11
2023-02-11T21:41:48.539Z,4.18
2023-02-11T21:44:16.776Z,4.18
2023-02-11T21:46:48.275Z,4.16
2023-02-11T21:49:16.397Z,4.05
2023-02-11T21:51:44.328Z,4.01
2023-02-11T21:54:12.325Z,4.02
2023-02-11T21:56:40.833Z,3.67
2023-02-11T21:59:11.906Z,3.55
2023-02-11T22:01:39.799Z,3.54
2023-02-11T22:04:07.925Z,3.70
2023-02-11T22:06:36.021Z,3.77
2023-02-11T22:09:05.589Z,3.92
2023-02-11T22:11:33.658Z,3.92
2023-02-11T22:14:01.907Z,3.81
2023-02-11T22:16:30.651Z,3.86
2023-02-11T22:18:59.381Z,3.92
2023-02-11T22:21:27.506Z,4.02
2023-02-11T22:23:56.238Z,4.04
2023-02-11T22:26:25.956Z,3.95
2023-02-11T22:28:55.000Z,3.89
2023-02-11T22:31:28.019Z,3.93
2023-02-11T22:33:56.498Z,3.93
2023-02-11T22:36:25.905Z,3.96
2023-02-11T22:38:54.351Z,4.01
2023-02-11T22:41:22.961Z,4.03
2023-02-11T22:43:51.190Z,3.89
2023-02-11T22:46:19.801Z,3.75
2023-02-11T22:48:48.414Z,3.60
2023-02-11T22:51:17.914Z,3.54
2023-02-11T22:53:49.455Z,3.51
2023-02-11T22:56:17.629Z,3.56
2023-02-11T22:58:45.700Z,3.58
2023-02-11T23:01:14.359Z,3.67
2023-02-11T23:03:43.140Z,3.67
2023-02-11T23:06:11.810Z,3.75
2023-02-11T23:08:40.365Z,3.77
2023-02-11T23:11:09.952Z,3.83
2023-02-11T23:13:39.049Z,3.84
2023-02-11T23:16:09.413Z,3.80
2023-02-11T23:18:38.959Z,3.70
2023-02-11T23:21:12.075Z,3.71
2023-02-11T23:23:40.408Z,3.83
2023-02-11T23:26:11.152Z,3.97
2023-02-11T23:28:40.317Z,4.07
2023-02-11T23:31:15.974Z,4.16
2023-02-11T23:33:44.692Z,4.17
2023-02-11T23:36:12.757Z,4.15
2023-02-11T23:38:40.655Z,4.08
2023-02-11T23:41:08.943Z,3.90
2023-02-11T23:43:37.303Z,3.78
2023-02-11T23:46:05.579Z,3.70
2023-02-11T23:48:36.099Z,3.55
2023-02-11T23:51:04.363Z,3.50
2023-02-11T23:53:32.339Z,3.46
2023-02-11T23:56:00.329Z,3.40
2023-02-11T23:58:28.531Z,3.39
